createdAt,value
2019-04-04T00:01:35.254Z,27.20
2019-04-04T00:04:10.726Z,27.20
2019-04-04T00:06:48.888Z,27.20
2019-04-04T00:09:20.126Z,27.20
2019-04-04T00:11:53.255Z,27.20
2019-04-04T00:14:45.459Z,27.30
2019-04-04T00:17:23.323Z,27.30
2019-04-04T00:19:58.999Z,27.30
2019-04-04T00:22:35.171Z,27.30
2019-04-04T00:25:09.649Z,27.30
2019-04-04T00:27:43.964Z,27.20
2019-04-04T00:30:17.945Z,27.20
2019-04-04T00:32:58.010Z,27.20
2019-04-04T00:35:37.074Z,27.20
2019-04-04T00:38:07.966Z,27.20
2019-04-04T00:40:40.107Z,27.20
2019-04-04T00:43:13.610Z,27.30
2019-04-04T00:45:44.115Z,27.20
2019-04-04T00:48:15.281Z,27.20
2019-04-04T00:50:46.179Z,27.20
2019-04-04T00:53:17.394Z,27.40
2019-04-04T00:55:48.704Z,27.30
2019-04-04T00:58:21.382Z,27.30
2019-04-04T01:00:54.867Z,27.30
2019-04-04T01:03:29.737Z,27.30
2019-04-04T01:06:02.921Z,27.30
2019-04-04T01:08:37.992Z,27.30
2019-04-04T01:11:10.633Z,27.30
2019-04-04T01:13:44.625Z,27.30
2019-04-04T01:16:15.798Z,27.30
2019-04-04T01:18:50.566Z,27.30
2019-04-04T01:21:25.433Z,27.30
2019-04-04T01:23:58.272Z,27.30
2019-04-04T01:26:34.838Z,27.40
2019-04-04T01:29:06.038Z,27.30
2019-04-04T01:31:46.986Z,27.30
2019-04-04T01:34:20.510Z,27.40
2019-04-04T01:36:50.167Z,27.30
2019-04-04T01:39:29.038Z,27.30
2019-04-04T01:42:00.116Z,27.40
2019-04-04T01:44:30.510Z,27.40
2019-04-04T01:47:01.149Z,27.40
2019-04-04T01:49:35.885Z,27.30
2019-04-04T01:52:12.030Z,27.30
2019-04-04T01:54:51.118Z,27.40
2019-04-04T01:57:23.587Z,27.30
2019-04-04T01:59:58.338Z,27.40
2019-04-04T02:02:34.421Z,27.50
2019-04-04T02:05:07.899Z,27.40
2019-04-04T02:07:44.422Z,27.40
2019-04-04T02:10:16.497Z,27.40
2019-04-04T02:13:02.953Z,27.40
2019-04-04T02:15:36.103Z,27.40
2019-04-04T02:18:08.363Z,26.90
2019-04-04T02:20:40.726Z,27.40
2019-04-04T02:23:13.150Z,27.40
2019-04-04T02:25:45.171Z,27.40
2019-04-04T02:28:20.806Z,27.40
2019-04-04T02:30:55.124Z,27.30
2019-04-04T02:33:25.923Z,27.40
2019-04-04T02:36:00.161Z,27.40
2019-04-04T02:38:31.907Z,27.50
2019-04-04T02:41:07.762Z,28.00
2019-04-04T02:43:40.884Z,27.50
2019-04-04T02:46:12.424Z,27.50
2019-04-04T02:48:45.468Z,27.40
2019-04-04T02:51:15.659Z,27.40
2019-04-04T02:53:53.749Z,27.50
2019-04-04T02:56:36.027Z,27.40
2019-04-04T02:59:08.967Z,27.40
2019-04-04T03:01:41.352Z,27.40
2019-04-04T03:04:15.965Z,27.40
2019-04-04T03:07:01.436Z,27.40
2019-04-04T03:09:41.924Z,27.40
2019-04-04T03:12:10.236Z,27.40
2019-04-04T03:14:44.449Z,27.40
2019-04-04T03:17:21.193Z,27.40
2019-04-04T03:20:00.807Z,27.50
2019-04-04T03:23:02.180Z,27.90
2019-04-04T03:25:48.654Z,27.40
2019-04-04T03:28:22.702Z,27.40
2019-04-04T03:31:02.822Z,27.40
2019-04-04T03:33:39.522Z,27.40
2019-04-04T03:36:18.632Z,27.40
2019-04-04T03:39:04.588Z,27.40
2019-04-04T03:41:37.909Z,27.40
2019-04-04T03:44:09.657Z,27.40
2019-04-04T03:46:41.430Z,28.00
2019-04-04T03:49:13.145Z,27.40
2019-04-04T03:51:55.712Z,27.40
2019-04-04T03:54:29.043Z,27.40
2019-04-04T03:57:13.673Z,27.40
2019-04-04T03:59:49.437Z,27.50
2019-04-04T04:02:33.098Z,27.50
2019-04-04T04:05:03.875Z,27.40
2019-04-04T04:07:38.770Z,27.40
2019-04-04T04:10:15.535Z,27.40
2019-04-04T04:12:56.719Z,27.50
2019-04-04T04:15:30.544Z,27.50
2019-04-04T04:18:01.469Z,27.50
2019-04-04T04:20:36.377Z,27.50
2019-04-04T04:23:04.522Z,27.40
2019-04-04T04:25:45.605Z,27.40
2019-04-04T04:28:19.783Z,27.40
2019-04-04T04:30:48.220Z,27.40
2019-04-04T04:33:19.114Z,27.50
2019-04-04T04:35:49.401Z,27.50
2019-04-04T04:38:25.515Z,27.50
2019-04-04T04:40:52.595Z,27.50
2019-04-04T04:43:33.738Z,27.60
2019-04-04T04:46:08.967Z,27.60
2019-04-04T04:48:43.453Z,27.60
2019-04-04T04:51:16.286Z,27.60
2019-04-04T04:53:50.345Z,27.60
2019-04-04T04:56:20.252Z,27.60
2019-04-04T04:58:56.584Z,27.60
2019-04-04T05:01:34.990Z,27.60
2019-04-04T05:04:08.159Z,27.60
2019-04-04T05:06:41.421Z,27.60
2019-04-04T05:09:16.000Z,27.20
2019-04-04T05:11:48.113Z,27.50
2019-04-04T05:14:22.338Z,27.60
2019-04-04T05:17:03.735Z,27.50
2019-04-04T05:19:41.873Z,28.10
2019-04-04T05:22:16.280Z,27.60
2019-04-04T05:24:50.529Z,27.50
2019-04-04T05:27:26.566Z,27.60
2019-04-04T05:29:59.084Z,27.60
2019-04-04T05:32:29.420Z,27.50
2019-04-04T05:35:02.086Z,27.50
2019-04-04T05:37:32.040Z,27.50
2019-04-04T05:40:02.702Z,27.50
2019-04-04T05:42:33.678Z,27.50
2019-04-04T05:45:09.001Z,27.50
2019-04-04T05:47:43.342Z,27.60
2019-04-04T05:50:16.221Z,27.60
2019-04-04T05:52:45.903Z,27.60
2019-04-04T05:55:22.297Z,27.50
2019-04-04T05:57:52.314Z,27.60
2019-04-04T06:00:26.952Z,27.60
2019-04-04T06:03:06.959Z,27.60
2019-04-04T06:05:39.767Z,27.70
2019-04-04T06:08:13.778Z,27.70
2019-04-04T06:10:45.475Z,27.70
2019-04-04T06:13:22.158Z,27.60
2019-04-04T06:16:00.022Z,27.40
2019-04-04T06:18:32.798Z,27.50
2019-04-04T06:21:04.850Z,27.90
2019-04-04T06:23:37.443Z,28.00
2019-04-04T06:26:08.315Z,28.00
2019-04-04T06:28:38.906Z,28.00
2019-04-04T06:31:09.336Z,28.10
2019-04-04T06:33:39.913Z,28.20
2019-04-04T06:36:10.111Z,28.00
2019-04-04T06:38:40.370Z,27.80
2019-04-04T06:41:10.810Z,27.70
2019-04-04T06:43:42.024Z,27.60
2019-04-04T06:46:12.549Z,27.50
2019-04-04T06:48:45.690Z,27.30
2019-04-04T06:51:16.969Z,27.70
2019-04-04T06:53:48.119Z,27.10
2019-04-04T06:56:19.500Z,27.00
2019-04-04T06:58:51.863Z,26.80
2019-04-04T07:01:27.678Z,26.80
2019-04-04T07:03:59.546Z,26.80
2019-04-04T07:06:31.275Z,26.70
2019-04-04T07:09:02.428Z,26.70
2019-04-04T07:11:35.116Z,26.60
2019-04-04T07:14:14.299Z,26.70
2019-04-04T07:16:50.211Z,26.60
2019-04-04T07:19:22.719Z,26.50
2019-04-04T07:21:54.136Z,26.60
2019-04-04T07:24:25.390Z,26.50
2019-04-04T07:26:56.421Z,26.50
2019-04-04T07:29:33.259Z,26.50
2019-04-04T07:32:07.183Z,26.50
2019-04-04T07:34:45.102Z,26.50
2019-04-04T07:37:16.748Z,26.50
2019-04-04T07:39:51.256Z,26.40
2019-04-04T07:42:22.155Z,26.70
2019-04-04T07:44:54.536Z,26.70
2019-04-04T07:47:25.282Z,26.90
2019-04-04T07:49:56.777Z,26.90
2019-04-04T07:52:27.582Z,26.90
2019-04-04T07:54:58.404Z,26.90
2019-04-04T07:57:30.259Z,26.90
2019-04-04T08:00:01.647Z,27.00
2019-04-04T08:02:33.101Z,26.90
2019-04-04T08:05:08.589Z,26.80
2019-04-04T08:07:39.985Z,26.80
2019-04-04T08:10:20.318Z,26.80
2019-04-04T08:12:44.959Z,26.90
2019-04-04T08:15:17.002Z,27.00
2019-04-04T08:17:50.970Z,27.00
2019-04-04T08:20:22.138Z,27.00
2019-04-04T08:22:55.099Z,27.00
2019-04-04T08:25:25.403Z,27.00
2019-04-04T08:27:56.349Z,27.00
2019-04-04T08:30:26.882Z,27.40
2019-04-04T08:32:58.206Z,27.00
2019-04-04T08:35:28.893Z,27.00
2019-04-04T08:37:59.849Z,27.10
2019-04-04T08:40:30.167Z,27.10
2019-04-04T08:43:01.395Z,27.20
2019-04-04T08:45:33.082Z,27.10
2019-04-04T08:48:07.072Z,27.20
2019-04-04T08:50:41.556Z,27.20
2019-04-04T08:53:12.921Z,27.20
2019-04-04T08:55:44.219Z,27.80
2019-04-04T08:58:14.790Z,27.30
2019-04-04T09:00:45.946Z,27.30
2019-04-04T09:03:17.011Z,27.40
2019-04-04T09:05:47.310Z,27.40
2019-04-04T09:08:18.716Z,27.40
2019-04-04T09:10:49.427Z,27.40
2019-04-04T09:13:20.361Z,27.40
2019-04-04T09:15:53.485Z,27.40
2019-04-04T09:18:29.703Z,27.40
2019-04-04T09:21:03.325Z,27.50
2019-04-04T09:23:34.341Z,27.50
2019-04-04T09:26:06.022Z,27.50
2019-04-04T09:28:37.558Z,27.50
2019-04-04T09:31:07.874Z,27.50
2019-04-04T09:33:38.617Z,27.40
2019-04-04T09:36:08.932Z,26.80
2019-04-04T09:38:39.988Z,26.90
2019-04-04T09:41:10.290Z,27.10
2019-04-04T09:43:41.342Z,26.50
2019-04-04T09:46:13.625Z,25.90
2019-04-04T09:48:50.107Z,25.80
2019-04-04T09:51:20.596Z,26.50
2019-04-04T09:53:53.207Z,27.00
2019-04-04T09:56:24.422Z,27.20
2019-04-04T09:58:55.528Z,27.80
2019-04-04T10:01:26.926Z,27.50
2019-04-04T10:03:58.414Z,27.50
2019-04-04T10:06:32.009Z,27.40
2019-04-04T10:09:15.062Z,27.60
2019-04-04T10:11:36.751Z,27.70
2019-04-04T10:14:08.504Z,27.90
2019-04-04T10:16:39.684Z,27.90
2019-04-04T10:19:10.795Z,28.00
2019-04-04T10:21:41.608Z,28.10
2019-04-04T10:24:12.684Z,28.00
2019-04-04T10:26:45.910Z,28.10
2019-04-04T10:29:16.878Z,28.10
2019-04-04T10:31:51.094Z,28.10
2019-04-04T10:34:28.625Z,28.20
2019-04-04T10:37:00.256Z,28.30
2019-04-04T10:39:32.884Z,28.20
2019-04-04T10:42:03.962Z,28.20
2019-04-04T10:44:38.386Z,28.10
2019-04-04T10:47:09.465Z,28.10
2019-04-04T10:49:40.678Z,28.30
2019-04-04T10:52:11.810Z,28.30
2019-04-04T10:54:45.462Z,28.50
2019-04-04T10:57:17.897Z,28.70
2019-04-04T10:59:49.238Z,28.70
2019-04-04T11:02:22.779Z,28.90
2019-04-04T11:04:53.950Z,29.00
2019-04-04T11:07:24.521Z,28.90
2019-04-04T11:09:55.656Z,28.90
2019-04-04T11:12:29.257Z,28.50
2019-04-04T11:15:00.188Z,28.80
2019-04-04T11:17:31.269Z,28.30
2019-04-04T11:20:02.256Z,27.80
2019-04-04T11:22:36.773Z,27.90
2019-04-04T11:25:09.007Z,28.10
2019-04-04T11:27:40.860Z,28.10
2019-04-04T11:30:12.005Z,28.20
2019-04-04T11:32:43.896Z,28.20
2019-04-04T11:35:14.592Z,28.10
2019-04-04T11:38:15.973Z,28.00
2019-04-04T11:40:51.819Z,27.90
2019-04-04T11:43:22.607Z,27.80
2019-04-04T11:45:53.077Z,28.40
2019-04-04T11:48:23.394Z,27.60
2019-04-04T11:50:54.045Z,27.70
2019-04-04T11:53:24.293Z,27.60
2019-04-04T11:55:57.723Z,27.60
2019-04-04T11:58:28.575Z,27.60
2019-04-04T12:01:01.173Z,27.30
2019-04-04T12:03:31.842Z,27.30
2019-04-04T12:06:04.991Z,27.40
2019-04-04T12:08:35.373Z,27.60
2019-04-04T12:11:06.361Z,27.60
2019-04-04T12:13:37.285Z,27.70
2019-04-04T12:16:08.981Z,27.70
2019-04-04T12:18:39.418Z,27.90
2019-04-04T12:21:09.874Z,28.00
2019-04-04T12:23:40.622Z,28.00
2019-04-04T12:26:12.964Z,28.10
2019-04-04T12:28:43.518Z,28.10
2019-04-04T12:31:14.042Z,28.30
2019-04-04T12:33:49.582Z,28.20
2019-04-04T12:36:24.956Z,28.20
2019-04-04T12:38:52.436Z,28.10
2019-04-04T12:41:23.158Z,28.20
2019-04-04T12:43:54.793Z,28.10
2019-04-04T12:46:27.133Z,28.10
2019-04-04T12:48:57.455Z,28.20
2019-04-04T12:51:30.039Z,28.30
2019-04-04T12:54:03.887Z,28.40
2019-04-04T12:56:34.962Z,28.40
2019-04-04T12:59:05.887Z,28.60
2019-04-04T13:01:36.063Z,28.60
2019-04-04T13:04:06.975Z,28.60
2019-04-04T13:06:37.236Z,28.90
2019-04-04T13:09:09.806Z,28.80
2019-04-04T13:11:40.486Z,28.70
2019-04-04T13:14:11.484Z,28.80
2019-04-04T13:16:42.781Z,28.90
2019-04-04T13:19:13.830Z,29.00
2019-04-04T13:21:47.767Z,29.60
2019-04-04T13:24:18.555Z,29.20
2019-04-04T13:26:50.131Z,29.30
2019-04-04T13:29:21.141Z,29.30
2019-04-04T13:31:51.670Z,29.10
2019-04-04T13:34:22.422Z,29.10
2019-04-04T13:36:52.834Z,29.10
2019-04-04T13:39:24.175Z,29.00
2019-04-04T13:41:54.544Z,29.10
2019-04-04T13:44:25.572Z,29.10
2019-04-04T13:46:55.859Z,29.20
2019-04-04T13:49:26.897Z,29.30
2019-04-04T13:51:57.235Z,29.50
2019-04-04T13:54:28.262Z,29.50
2019-04-04T13:56:59.101Z,29.60
2019-04-04T13:59:33.026Z,29.60
2019-04-04T14:02:04.461Z,29.50
2019-04-04T14:04:35.601Z,29.50
2019-04-04T14:07:06.763Z,29.40
2019-04-04T14:09:37.890Z,29.40
2019-04-04T14:12:09.033Z,29.50
2019-04-04T14:14:40.227Z,29.40
2019-04-04T14:17:11.370Z,29.40
2019-04-04T14:19:43.705Z,29.40
2019-04-04T14:22:14.348Z,29.40
2019-04-04T14:24:45.570Z,29.40
2019-04-04T14:27:16.437Z,29.40
2019-04-04T14:29:46.933Z,29.40
2019-04-04T14:32:20.987Z,29.40
2019-04-04T14:34:50.888Z,29.60
2019-04-04T14:37:31.896Z,29.10
2019-04-04T14:40:03.186Z,28.90
2019-04-04T14:42:34.623Z,28.90
2019-04-04T14:45:06.660Z,28.60
2019-04-04T14:47:37.438Z,28.80
2019-04-04T14:50:08.723Z,28.70
2019-04-04T14:52:39.525Z,28.80
2019-04-04T14:55:11.272Z,28.70
2019-04-04T14:57:42.057Z,28.90
2019-04-04T15:00:15.892Z,29.50
2019-04-04T15:02:46.566Z,29.60
2019-04-04T15:05:18.514Z,29.70
2019-04-04T15:07:48.917Z,29.80
2019-04-04T15:10:19.883Z,30.00
2019-04-04T15:12:50.218Z,30.00
2019-04-04T15:15:20.938Z,30.00
2019-04-04T15:17:51.621Z,30.10
2019-04-04T15:20:22.622Z,30.90
2019-04-04T15:22:52.816Z,30.20
2019-04-04T15:25:23.970Z,30.20
2019-04-04T15:27:54.380Z,30.40
2019-04-04T15:30:25.355Z,30.20
2019-04-04T15:32:55.686Z,30.10
2019-04-04T15:35:26.702Z,30.00
2019-04-04T15:37:57.117Z,30.00
2019-04-04T15:40:28.127Z,30.20
2019-04-04T15:42:58.781Z,30.20
2019-04-04T15:45:29.439Z,30.30
2019-04-04T15:47:59.765Z,30.40
2019-04-04T15:50:30.803Z,30.40
2019-04-04T15:53:01.048Z,30.50
2019-04-04T15:55:32.174Z,30.50
2019-04-04T15:58:05.461Z,30.40
2019-04-04T16:00:36.827Z,30.50
2019-04-04T16:03:10.063Z,30.40
2019-04-04T16:05:43.194Z,30.60
2019-04-04T16:08:13.359Z,30.50
2019-04-04T16:10:51.181Z,30.40
2019-04-04T16:13:21.620Z,30.30
2019-04-04T16:15:56.080Z,30.00
2019-04-04T16:18:26.250Z,30.00
2019-04-04T16:20:57.156Z,30.00
2019-04-04T16:23:28.630Z,29.80
2019-04-04T16:26:05.568Z,29.60
2019-04-04T16:28:35.865Z,29.60
2019-04-04T16:31:06.923Z,29.50
2019-04-04T16:33:37.207Z,29.40
2019-04-04T16:36:10.747Z,29.30
2019-04-04T16:38:44.202Z,29.40
2019-04-04T16:41:15.018Z,29.30
2019-04-04T16:43:49.651Z,29.30
2019-04-04T16:46:22.835Z,29.40
2019-04-04T16:48:53.726Z,29.60
2019-04-04T16:51:24.834Z,29.70
2019-04-04T16:53:56.770Z,29.80
2019-04-04T16:56:27.873Z,29.80
2019-04-04T16:58:59.361Z,29.90
2019-04-04T17:01:30.214Z,30.00
2019-04-04T17:04:01.874Z,30.00
2019-04-04T17:06:34.318Z,30.00
2019-04-04T17:09:07.076Z,30.10
2019-04-04T17:11:39.381Z,30.20
2019-04-04T17:14:10.083Z,30.10
2019-04-04T17:16:48.699Z,30.20
2019-04-04T17:19:19.125Z,30.30
2019-04-04T17:21:52.390Z,30.30
2019-04-04T17:24:23.363Z,30.30
2019-04-04T17:26:57.395Z,30.40
2019-04-04T17:29:30.287Z,30.40
2019-04-04T17:32:02.044Z,30.50
2019-04-04T17:34:34.119Z,30.60
2019-04-04T17:37:04.835Z,30.50
2019-04-04T17:39:36.505Z,30.60
2019-04-04T17:42:06.923Z,30.60
2019-04-04T17:44:40.915Z,31.20
2019-04-04T17:47:12.595Z,30.50
2019-04-04T17:49:44.302Z,30.50
2019-04-04T17:52:16.030Z,30.40
2019-04-04T17:54:49.323Z,30.40
2019-04-04T17:57:22.334Z,30.50
2019-04-04T17:59:58.020Z,30.50
2019-04-04T18:02:30.041Z,30.40
2019-04-04T18:05:01.010Z,30.40
2019-04-04T18:07:32.933Z,30.40
2019-04-04T18:10:05.862Z,30.50
2019-04-04T18:12:40.465Z,30.50
2019-04-04T18:15:13.265Z,30.40
2019-04-04T18:17:53.102Z,30.40
2019-04-04T18:20:25.998Z,30.40
2019-04-04T18:22:59.309Z,30.50
2019-04-04T18:25:34.657Z,30.50
2019-04-04T18:28:09.422Z,30.60
2019-04-04T18:30:51.130Z,30.60
2019-04-04T18:33:24.202Z,30.60
2019-04-04T18:36:03.709Z,30.70
2019-04-04T18:38:38.971Z,30.80
2019-04-04T18:41:11.058Z,30.70
2019-04-04T18:43:49.751Z,30.90
2019-04-04T18:46:19.699Z,30.90
2019-04-04T18:49:00.281Z,31.00
2019-04-04T18:51:37.614Z,31.00
2019-04-04T18:54:19.291Z,31.10
2019-04-04T18:56:53.067Z,31.60
2019-04-04T18:59:25.873Z,31.00
2019-04-04T19:01:58.919Z,31.10
2019-04-04T19:04:33.377Z,31.10
2019-04-04T19:07:08.756Z,31.10
2019-04-04T19:09:43.346Z,31.10
2019-04-04T19:12:15.411Z,31.20
2019-04-04T19:14:45.719Z,31.20
2019-04-04T19:17:21.691Z,31.20
2019-04-04T19:19:53.623Z,31.30
2019-04-04T19:22:35.103Z,31.30
2019-04-04T19:25:06.518Z,31.30
2019-04-04T19:27:37.461Z,31.30
2019-04-04T19:30:12.540Z,31.40
2019-04-04T19:32:45.822Z,31.40
2019-04-04T19:35:20.565Z,31.40
2019-04-04T19:37:59.880Z,31.30
2019-04-04T19:40:26.304Z,31.30
2019-04-04T19:42:57.778Z,31.30
2019-04-04T19:45:29.227Z,31.90
2019-04-04T19:47:59.640Z,31.40
2019-04-04T19:50:31.086Z,31.40
2019-04-04T19:53:01.736Z,31.40
2019-04-04T19:55:33.713Z,31.40
2019-04-04T19:58:04.249Z,31.40
2019-04-04T20:00:40.682Z,31.40
2019-04-04T20:03:11.840Z,31.40
2019-04-04T20:05:45.670Z,31.50
2019-04-04T20:08:16.265Z,31.50
2019-04-04T20:10:52.724Z,31.50
2019-04-04T20:13:31.159Z,31.50
2019-04-04T20:16:02.077Z,31.50
2019-04-04T20:18:36.602Z,31.50
2019-04-04T20:21:10.114Z,31.50
2019-04-04T20:23:40.699Z,31.60
2019-04-04T20:26:11.823Z,31.50
2019-04-04T20:28:45.002Z,31.50
2019-04-04T20:31:15.919Z,32.20
2019-04-04T20:34:01.398Z,31.60
2019-04-04T20:36:38.503Z,31.60
2019-04-04T20:39:14.863Z,31.60
2019-04-04T20:41:46.613Z,31.60
2019-04-04T20:44:19.041Z,31.60
2019-04-04T20:46:50.894Z,31.60
2019-04-04T20:49:21.728Z,31.70
2019-04-04T20:51:54.226Z,31.60
2019-04-04T20:54:31.012Z,31.70
2019-04-04T20:57:01.754Z,31.60
2019-04-04T20:59:32.450Z,31.70
2019-04-04T21:02:07.481Z,31.60
2019-04-04T21:04:43.353Z,31.70
2019-04-04T21:07:14.627Z,31.70
2019-04-04T21:09:50.230Z,31.70
2019-04-04T21:12:22.155Z,31.70
2019-04-04T21:14:52.518Z,31.70
2019-04-04T21:17:24.129Z,31.70
2019-04-04T21:19:54.726Z,31.70
2019-04-04T21:22:28.030Z,31.70
2019-04-04T21:24:59.134Z,31.80
2019-04-04T21:27:30.669Z,32.40
2019-04-04T21:30:05.135Z,31.90
2019-04-04T21:32:44.364Z,31.80
2019-04-04T21:35:15.028Z,31.80
2019-04-04T21:37:49.591Z,31.80
2019-04-04T21:40:20.126Z,31.80
2019-04-04T21:42:57.897Z,31.80
2019-04-04T21:45:34.663Z,31.80
2019-04-04T21:48:08.014Z,31.90
2019-04-04T21:50:38.567Z,31.80
2019-04-04T21:53:18.252Z,31.80
2019-04-04T21:55:51.571Z,31.80
2019-04-04T21:58:29.963Z,31.80
2019-04-04T22:01:01.805Z,31.90
2019-04-04T22:03:53.336Z,31.90
2019-04-04T22:06:28.900Z,31.90
2019-04-04T22:09:01.151Z,31.90
2019-04-04T22:11:45.674Z,31.90
2019-04-04T22:14:21.810Z,32.00
2019-04-04T22:16:56.038Z,31.90
2019-04-04T22:19:30.611Z,31.90
2019-04-04T22:22:02.606Z,31.90
2019-04-04T22:24:38.261Z,31.90
2019-04-04T22:27:16.021Z,31.90
2019-04-04T22:29:45.922Z,31.90
2019-04-04T22:32:16.948Z,31.90
2019-04-04T22:34:47.262Z,31.90
2019-04-04T22:37:22.314Z,31.90
2019-04-04T22:39:58.514Z,31.90
2019-04-04T22:42:37.293Z,31.90
2019-04-04T22:45:07.885Z,31.90
2019-04-04T22:47:42.642Z,31.90
2019-04-04T22:50:16.691Z,31.90
2019-04-04T22:52:53.879Z,31.90
2019-04-04T22:55:27.693Z,31.90
2019-04-04T22:58:05.294Z,31.90
2019-04-04T23:00:35.638Z,31.90
2019-04-04T23:03:11.750Z,31.40
2019-04-04T23:05:45.335Z,31.60
2019-04-04T23:08:22.302Z,31.90
2019-04-04T23:10:55.388Z,31.80
2019-04-04T23:13:33.930Z,31.80
2019-04-04T23:16:04.815Z,31.80
2019-04-04T23:18:44.546Z,31.80
2019-04-04T23:21:16.350Z,31.80
2019-04-04T23:23:50.225Z,31.80
2019-04-04T23:26:22.322Z,31.80
2019-04-04T23:28:55.750Z,31.80
2019-04-04T23:31:34.442Z,31.80
2019-04-04T23:34:13.782Z,31.80
2019-04-04T23:36:44.098Z,31.80
2019-04-04T23:39:19.175Z,31.80
2019-04-04T23:41:52.618Z,31.80
2019-04-04T23:44:25.434Z,31.80
2019-04-04T23:47:03.266Z,31.80
2019-04-04T23:49:38.422Z,31.70
2019-04-04T23:52:16.841Z,31.80
2019-04-04T23:54:52.133Z,31.70
2019-04-04T23:57:27.179Z,31.80
